Time;durP1;ratioP1;P1;durP2;ratioP2;P2;SDS_P1;SDS_P2;PMS_P1;PMS_P2;Temp;Humidity;BMP_temperature;BMP_pressure;BME280_temperature;BME280_humidity;BME280_pressure;Samples;Min_cycle;Max_cycle;Signal;HPM_P1;HPM_P2
2022/05/14 00:00:34;;;;;;;22.48;5.45;;;;;;;10.29;97.04;102141.88;5073692;28;20036;-74
2022/05/14 00:03:00;;;;;;;32.33;7.80;;;;;;;10.27;97.14;102141.13;5073499;28;20033;-77
2022/05/14 00:05:25;;;;;;;38.40;10.23;;;;;;;10.22;97.57;102131.63;5073875;28;20376;-75
2022/05/14 00:07:52;;;;;;;40.30;11.32;;;;;;;10.27;98.21;102130.47;5073924;28;20369;-74
2022/05/14 00:10:21;;;;;;;43.53;10.68;;;;;;;10.32;98.33;102131.88;5074038;28;20024;-73
2022/05/14 00:13:04;;;;;;;33.45;10.40;;;;;;;10.33;98.49;102140.69;5073814;28;20031;-73
2022/05/14 00:15:40;;;;;;;36.67;7.72;;;;;;;10.44;98.61;102137.34;5056521;28;20409;-73
2022/05/14 00:18:07;;;;;;;32.00;7.80;;;;;;;10.41;98.31;102127.75;5074248;28;20456;-74
2022/05/14 00:20:33;;;;;;;32.22;7.38;;;;;;;10.35;97.89;102131.69;5073722;28;20086;-74
2022/05/14 00:22:58;;;;;;;30.77;6.38;;;;;;;10.37;98.18;102136.91;5055660;28;20121;-75
2022/05/14 00:25:25;;;;;;;34.67;6.07;;;;;;;10.34;98.04;102135.31;5073639;28;20472;-75
2022/05/14 00:27:51;;;;;;;30.10;6.38;;;;;;;10.33;98.56;102138.03;5074361;28;20037;-74
2022/05/14 00:30:19;;;;;;;25.38;4.70;;;;;;;10.31;98.61;102134.66;5073969;28;20349;-74
2022/05/14 00:32:47;;;;;;;26.25;5.25;;;;;;;10.30;98.66;102125.81;5056131;28;20059;-74
2022/05/14 00:35:12;;;;;;;25.92;4.93;;;;;;;10.30;98.74;102123.16;5073066;28;20353;-75
2022/05/14 00:37:38;;;;;;;31.55;5.47;;;;;;;10.31;99.04;102122.19;5073546;28;20037;-74
2022/05/14 00:40:08;;;;;;;22.08;4.22;;;;;;;10.32;99.09;102128.38;5055762;28;20456;-76
2022/05/14 00:42:33;;;;;;;27.88;5.25;;;;;;;10.29;98.78;102121.44;5073647;28;20038;-74
2022/05/14 00:44:59;;;;;;;32.92;5.25;;;;;;;10.33;99.28;102122.97;5056187;28;20604;-74
2022/05/14 00:47:29;;;;;;;23.95;3.95;;;;;;;10.32;99.22;102118.56;5073858;28;20065;-74
2022/05/14 00:49:54;;;;;;;29.42;5.38;;;;;;;10.32;99.19;102123.91;5073944;28;20055;-75
2022/05/14 00:52:22;;;;;;;26.92;4.90;;;;;;;10.36;99.34;102122.75;5073488;28;20452;-75
2022/05/14 00:55:00;;;;;;;25.67;5.25;;;;;;;10.35;99.26;102113.06;5073599;28;20039;-75
2022/05/14 00:57:30;;;;;;;27.38;4.70;;;;;;;10.33;99.19;102122.06;5073435;28;20024;-75
2022/05/14 00:59:59;;;;;;;22.38;4.82;;;;;;;10.32;99.36;102120.41;5073663;28;20085;-75
2022/05/14 01:02:25;;;;;;;26.63;4.47;;;;;;;10.30;99.40;102117.84;5073315;28;20029;-75
2022/05/14 01:04:51;;;;;;;31.65;4.88;;;;;;;10.30;99.39;102125.81;5055235;28;20029;-74
2022/05/14 01:07:19;;;;;;;36.00;5.68;;;;;;;10.28;99.20;102125.06;5054844;28;20056;-74
2022/05/14 01:09:48;;;;;;;25.75;5.05;;;;;;;10.25;99.20;102119.94;5072781;28;20046;-74
2022/05/14 01:12:17;;;;;;;25.02;6.40;;;;;;;10.29;99.60;102125.94;5055151;28;20028;-75
2022/05/14 01:14:43;;;;;;;28.60;5.10;;;;;;;10.33;100.00;102125.63;5055132;28;20098;-74
2022/05/14 01:17:08;;;;;;;24.38;4.53;;;;;;;10.35;100.00;102130.84;5073594;28;20036;-78
2022/05/14 01:19:34;;;;;;;24.42;4.13;;;;;;;10.32;99.61;102131.03;5073043;28;20434;-74
2022/05/14 01:22:23;;;;;;;30.70;5.50;;;;;;;10.34;99.60;102119.34;5073435;28;20056;-73
2022/05/14 01:27:57;;;;;;;28.58;5.60;;;;;;;10.38;99.60;102127.97;5073419;28;20035;-74
2022/05/14 01:30:23;;;;;;;28.33;4.90;;;;;;;10.39;99.66;102130.53;5072855;28;20032;-73
2022/05/14 01:33:04;;;;;;;26.35;5.18;;;;;;;10.37;99.56;102123.59;5074590;28;20037;-74
2022/05/14 01:35:39;;;;;;;37.47;5.82;;;;;;;10.34;99.61;102129.13;5077465;28;20422;-74
2022/05/14 01:38:05;;;;;;;23.10;4.70;;;;;;;10.29;99.74;102134.75;5076671;28;20029;-74
2022/05/14 01:40:31;;;;;;;26.45;4.47;;;;;;;10.20;99.80;102132.72;5076709;28;20039;-74
2022/05/14 01:42:57;;;;;;;21.42;4.90;;;;;;;10.14;99.86;102133.16;5076909;28;20112;-74
2022/05/14 01:45:23;;;;;;;23.35;4.57;;;;;;;10.10;100.00;102131.66;5076383;28;20056;-75
2022/05/14 01:47:49;;;;;;;31.77;5.32;;;;;;;10.09;100.00;102130.81;5076479;28;20032;-74
2022/05/14 01:50:14;;;;;;;30.38;5.40;;;;;;;10.05;100.00;102131.97;5076810;28;20039;-76
2022/05/14 01:52:39;;;;;;;32.28;4.90;;;;;;;10.03;100.00;102141.84;5076578;28;20448;-73
2022/05/14 01:55:05;;;;;;;25.00;6.22;;;;;;;10.02;100.00;102138.34;5076735;28;20115;-73
2022/05/14 01:57:30;;;;;;;23.95;4.97;;;;;;;9.99;100.00;102143.84;5076523;28;20440;-74
2022/05/14 01:59:56;;;;;;;26.02;5.05;;;;;;;9.95;100.00;102141.50;5075805;28;20025;-74
2022/05/14 02:02:21;;;;;;;32.20;5.38;;;;;;;9.92;100.00;102139.06;5076368;28;20032;-74
2022/05/14 02:04:47;;;;;;;23.30;5.30;;;;;;;9.92;100.00;102142.56;5075998;28;20380;-73
2022/05/14 02:07:12;;;;;;;27.63;5.70;;;;;;;9.88;100.00;102139.28;5075909;28;20033;-74
2022/05/14 02:09:38;;;;;;;20.05;5.72;;;;;;;9.84;100.00;102136.94;5057933;28;20071;-74
2022/05/14 02:12:04;;;;;;;31.63;5.88;;;;;;;9.81;100.00;102147.75;5058020;28;20438;-74
2022/05/14 02:14:30;;;;;;;26.23;5.10;;;;;;;9.78;100.00;102153.25;5075621;28;20460;-74
2022/05/14 02:16:55;;;;;;;29.25;5.78;;;;;;;9.79;100.00;102147.00;5076100;28;20043;-74
2022/05/14 02:19:20;;;;;;;30.17;6.47;;;;;;;9.76;100.00;102150.69;5075912;28;20100;-74
2022/05/14 02:21:46;;;;;;;30.63;7.03;;;;;;;9.71;100.00;102150.16;5075671;28;20032;-73
2022/05/14 02:24:13;;;;;;;26.52;5.05;;;;;;;9.65;100.00;102148.75;5057541;28;20102;-74
2022/05/14 02:26:38;;;;;;;30.10;5.43;;;;;;;9.65;100.00;102146.09;5075486;28;20048;-74
2022/05/14 02:29:04;;;;;;;24.25;5.40;;;;;;;9.64;100.00;102152.38;5057698;28;20029;-74
2022/05/14 02:31:29;;;;;;;28.65;5.72;;;;;;;9.61;100.00;102151.72;5075175;28;20032;-74
2022/05/14 02:33:55;;;;;;;23.27;4.65;;;;;;;9.56;100.00;102149.38;5057495;28;20033;-74
2022/05/14 02:36:20;;;;;;;31.58;6.20;;;;;;;9.51;100.00;102154.16;5057747;28;20456;-77
2022/05/14 02:38:46;;;;;;;23.20;5.63;;;;;;;9.50;100.00;102153.28;5057067;28;20440;-74
2022/05/14 02:41:13;;;;;;;31.63;6.32;;;;;;;9.56;100.00;102146.72;5057757;28;20043;-74
2022/05/14 02:43:39;;;;;;;24.80;5.25;;;;;;;9.58;100.00;102154.59;5074690;28;20051;-74
2022/05/14 02:46:05;;;;;;;31.52;6.55;;;;;;;9.55;100.00;102155.63;5075290;28;20099;-74
2022/05/14 02:48:31;;;;;;;29.73;5.20;;;;;;;9.55;100.00;102152.97;5075201;28;20028;-74
2022/05/14 02:50:57;;;;;;;28.92;6.05;;;;;;;9.56;100.00;102156.50;5075143;28;20032;-74
2022/05/14 02:53:23;;;;;;;27.95;6.07;;;;;;;9.55;100.00;102160.94;5075358;28;20105;-79
2022/05/14 02:55:48;;;;;;;25.30;6.32;;;;;;;9.58;100.00;102160.75;5075310;28;20079;-74
2022/05/14 02:59:06;;;;;;;29.48;6.72;;;;;;;9.58;100.00;102166.06;5074745;28;20028;-74
2022/05/14 03:00:59;;;;;;;27.13;5.82;;;;;;;9.60;100.00;102174.78;5074466;28;20099;-74
2022/05/14 03:03:24;;;;;;;20.38;4.75;;;;;;;9.60;100.00;102171.25;5040370;28;20037;-76
2022/05/14 03:05:49;;;;;;;31.17;5.75;;;;;;;9.53;100.00;102170.81;5075532;28;20025;-74
2022/05/14 03:08:15;;;;;;;23.75;5.38;;;;;;;9.48;100.00;102163.16;5076300;28;20111;-74
2022/05/14 03:10:40;;;;;;;21.75;4.82;;;;;;;9.47;100.00;102165.91;5058480;28;20128;-74
2022/05/14 03:13:05;;;;;;;23.52;4.90;;;;;;;9.45;100.00;102163.34;5075321;28;20139;-73
2022/05/14 03:15:31;;;;;;;36.78;7.28;;;;;;;9.46;100.00;102165.03;5056746;28;20043;-74
2022/05/14 03:17:56;;;;;;;20.45;5.22;;;;;;;9.43;100.00;102165.25;5074336;28;20033;-74
2022/05/14 03:20:21;;;;;;;26.33;5.45;;;;;;;9.39;100.00;102163.75;5056781;28;20051;-73
2022/05/14 03:22:47;;;;;;;20.73;5.60;;;;;;;9.35;100.00;102160.44;5056264;28;20049;-74
2022/05/14 03:25:12;;;;;;;27.88;6.07;;;;;;;9.35;100.00;102157.78;5057083;28;20036;-74
2022/05/14 03:27:38;;;;;;;29.40;5.47;;;;;;;9.33;100.00;102158.81;5039999;28;20080;-74
2022/05/14 03:30:04;;;;;;;29.63;5.28;;;;;;;9.32;100.00;102163.28;5074386;28;20039;-74
2022/05/14 03:32:29;;;;;;;28.85;5.35;;;;;;;9.26;100.00;102161.03;5074530;28;20040;-74
2022/05/14 03:34:55;;;;;;;23.90;6.18;;;;;;;9.24;100.00;102160.28;5074355;28;20040;-74
2022/05/14 03:37:23;;;;;;;30.17;6.15;;;;;;;9.22;100.00;102158.66;5074187;28;20037;-73
2022/05/14 03:39:48;;;;;;;23.73;5.35;;;;;;;9.15;100.00;102153.75;5074484;28;20036;-74
2022/05/14 03:42:14;;;;;;;24.67;5.57;;;;;;;9.06;100.00;102154.34;5074155;28;20398;-74
2022/05/14 03:44:39;;;;;;;31.50;5.57;;;;;;;8.97;100.00;102157.56;5073958;28;20396;-74
2022/05/14 03:47:05;;;;;;;26.50;5.80;;;;;;;8.92;100.00;102160.50;5073692;28;20039;-74
2022/05/14 03:49:31;;;;;;;31.48;7.38;;;;;;;8.91;100.00;102161.47;5056078;28;20483;-76
2022/05/14 03:51:56;;;;;;;25.27;5.90;;;;;;;8.88;100.00;102161.63;5074463;28;20064;-74
2022/05/14 03:54:21;;;;;;;19.05;5.22;;;;;;;8.88;100.00;102163.44;5073413;28;20040;-74
2022/05/14 03:56:47;;;;;;;24.20;6.22;;;;;;;8.87;100.00;102167.03;5073270;28;20162;-74
2022/05/14 03:59:12;;;;;;;19.08;5.80;;;;;;;8.88;100.00;102160.78;5056024;28;20054;-74
2022/05/14 04:01:38;;;;;;;24.00;5.82;;;;;;;8.88;100.00;102163.44;5073711;28;20036;-74
2022/05/14 04:04:04;;;;;;;24.42;5.55;;;;;;;8.88;100.00;102168.75;5074513;28;20119;-74
2022/05/14 04:06:30;;;;;;;23.65;5.47;;;;;;;8.86;100.00;102171.50;5074122;28;20078;-74
2022/05/14 04:08:56;;;;;;;32.05;5.68;;;;;;;8.86;100.00;102176.81;5073424;28;20036;-74
2022/05/14 04:11:21;;;;;;;21.13;4.90;;;;;;;8.86;100.00;102176.81;5073759;28;20377;-74
2022/05/14 04:13:47;;;;;;;22.98;6.18;;;;;;;8.83;100.00;102180.50;5073525;28;20039;-74
2022/05/14 04:16:12;;;;;;;23.40;6.30;;;;;;;8.81;100.00;102184.22;5073684;28;20090;-74
2022/05/14 04:18:37;;;;;;;26.58;6.43;;;;;;;8.82;100.00;102183.25;5073342;28;20083;-75
2022/05/14 04:21:03;;;;;;;22.13;5.80;;;;;;;8.80;100.00;102186.00;5073462;28;20028;-74
2022/05/14 04:23:31;;;;;;;21.00;4.82;;;;;;;8.77;100.00;102185.34;5073413;28;20098;-74
2022/05/14 04:25:57;;;;;;;19.60;5.65;;;;;;;8.78;100.00;102190.56;5073499;28;20028;-74
2022/05/14 04:28:24;;;;;;;19.85;5.13;;;;;;;8.83;100.00;102182.31;5073515;28;20523;-74
2022/05/14 04:30:49;;;;;;;22.77;5.93;;;;;;;8.90;100.00;102188.94;5073309;28;20024;-74
2022/05/14 04:33:16;;;;;;;25.33;6.22;;;;;;;8.98;100.00;102193.78;5073425;28;20131;-74
2022/05/14 04:35:42;;;;;;;24.13;6.22;;;;;;;9.08;100.00;102194.06;5073556;28;20032;-74
2022/05/14 04:38:07;;;;;;;30.27;6.18;;;;;;;9.19;100.00;102196.88;5055337;28;20028;-74
2022/05/14 04:40:33;;;;;;;24.65;5.85;;;;;;;9.28;100.00;102200.78;5073480;28;20029;-75
2022/05/14 04:42:59;;;;;;;30.35;7.15;;;;;;;9.39;100.00;102205.38;5072972;28;20040;-75
2022/05/14 04:45:24;;;;;;;22.30;5.65;;;;;;;9.52;100.00;102201.88;5073760;28;20033;-75
2022/05/14 04:47:49;;;;;;;20.33;5.72;;;;;;;9.66;100.00;102194.81;5073107;28;20028;-75
2022/05/14 04:50:15;;;;;;;20.02;5.25;;;;;;;9.75;100.00;102198.66;5073152;28;20024;-74
2022/05/14 04:52:41;;;;;;;35.70;7.03;;;;;;;9.85;100.00;102210.38;5073206;28;20104;-75
2022/05/14 04:55:07;;;;;;;25.65;6.00;;;;;;;9.97;100.00;102212.25;5055375;28;20373;-74
2022/05/14 04:57:33;;;;;;;25.77;5.78;;;;;;;10.16;100.00;102213.69;5055086;28;20051;-74
2022/05/14 04:59:58;;;;;;;20.75;5.65;;;;;;;10.35;100.00;102206.19;5073091;28;20024;-74
2022/05/14 05:05:09;;;;;;;25.25;5.80;;;;;;;10.63;100.00;102208.75;5073219;28;20105;-74
2022/05/14 05:07:35;;;;;;;23.17;4.85;;;;;;;10.68;100.00;102207.50;5076508;28;20107;-74
2022/05/14 05:10:00;;;;;;;23.88;4.72;;;;;;;10.73;100.00;102215.16;5059400;28;20032;-74
2022/05/14 05:12:25;;;;;;;22.80;5.45;;;;;;;10.76;100.00;102205.16;5059428;28;20442;-74
2022/05/14 05:14:51;;;;;;;16.75;4.93;;;;;;;10.82;100.00;102219.00;5076904;28;20519;-73
2022/05/14 05:17:16;;;;;;;18.10;4.97;;;;;;;10.83;100.00;102210.91;5077008;28;20032;-74
2022/05/14 05:19:41;;;;;;;22.10;4.78;;;;;;;10.85;100.00;102208.13;5077108;28;20035;-76
2022/05/14 05:22:07;;;;;;;20.85;5.20;;;;;;;10.82;100.00;102214.50;5076518;28;20082;-74
2022/05/14 05:24:33;;;;;;;21.42;4.97;;;;;;;10.81;100.00;102225.25;5076952;28;20036;-73
2022/05/14 05:26:58;;;;;;;20.83;5.53;;;;;;;10.87;100.00;102232.84;5076806;28;20119;-74
2022/05/14 05:29:24;;;;;;;29.80;5.65;;;;;;;11.00;100.00;102225.72;5077374;28;20036;-73
2022/05/14 05:31:49;;;;;;;24.55;5.53;;;;;;;11.13;100.00;102230.16;5076856;28;20086;-73
2022/05/14 05:34:15;;;;;;;21.85;5.72;;;;;;;11.19;100.00;102230.56;5076363;28;20028;-75
2022/05/14 05:36:40;;;;;;;26.85;5.15;;;;;;;11.16;99.20;102236.09;5076375;28;20086;-73
2022/05/14 05:39:06;;;;;;;19.48;4.45;;;;;;;11.11;98.68;102235.59;5076188;28;20472;-73
2022/05/14 05:41:32;;;;;;;23.02;5.43;;;;;;;11.07;98.19;102240.28;5058622;28;20032;-74
2022/05/14 05:43:57;;;;;;;25.17;5.82;;;;;;;11.13;98.52;102240.81;5058882;28;20025;-73
2022/05/14 05:46:23;;;;;;;18.83;4.80;;;;;;;11.26;99.22;102237.16;5076488;28;20032;-73
2022/05/14 05:48:48;;;;;;;18.00;5.35;;;;;;;11.44;100.00;102245.66;5076766;28;20040;-74
2022/05/14 05:51:14;;;;;;;26.55;7.75;;;;;;;11.47;98.36;102236.59;5076795;28;20028;-73
2022/05/14 05:59:07;;;;;;;32.55;7.10;;;;;;;11.74;98.64;102247.06;5075935;28;20066;-74
2022/05/14 06:01:33;;;;;;;17.88;5.03;;;;;;;11.84;98.41;102249.91;5075943;28;20040;-74
2022/05/14 06:03:58;;;;;;;22.42;4.93;;;;;;;11.98;98.65;102248.91;5076478;28;20020;-74
2022/05/14 06:06:24;;;;;;;20.73;4.75;;;;;;;12.09;97.53;102246.31;5075994;28;20037;-74
2022/05/14 06:08:50;;;;;;;20.42;4.93;;;;;;;12.17;96.86;102249.22;5075566;28;20033;-74
2022/05/14 06:11:17;;;;;;;24.27;5.35;;;;;;;12.17;94.09;102253.72;5075872;28;20504;-74
2022/05/14 06:13:43;;;;;;;20.23;4.95;;;;;;;12.22;93.00;102262.22;5058199;28;20036;-74
2022/05/14 06:16:12;;;;;;;24.60;5.70;;;;;;;12.50;94.75;102254.81;5075747;28;20393;-74
2022/05/14 06:18:37;;;;;;;20.55;5.05;;;;;;;12.86;93.50;102263.63;5074917;28;20043;-74
2022/05/14 06:21:06;;;;;;;18.98;4.50;;;;;;;13.21;90.47;102260.84;5075379;28;20041;-74
2022/05/14 06:23:33;;;;;;;21.05;4.85;;;;;;;13.47;85.85;102260.63;5075281;28;20174;-72
2022/05/14 06:25:58;;;;;;;19.88;4.43;;;;;;;13.58;83.39;102273.13;5076114;28;20089;-73
2022/05/14 06:28:24;;;;;;;21.00;4.95;;;;;;;13.70;83.72;102263.25;5075670;28;20055;-73
2022/05/14 06:30:50;;;;;;;19.42;4.68;;;;;;;13.82;81.90;102269.44;5057604;28;20113;-75
2022/05/14 06:33:16;;;;;;;14.95;4.40;;;;;;;13.91;81.02;102266.84;5057516;28;20060;-74
2022/05/14 06:35:43;;;;;;;16.33;4.50;;;;;;;14.08;81.29;102268.13;5057503;28;20025;-72
2022/05/14 06:38:08;;;;;;;24.90;5.07;;;;;;;14.24;80.26;102272.19;5057418;28;20119;-74
2022/05/14 06:40:35;;;;;;;18.23;4.18;;;;;;;14.41;78.87;102279.66;5058176;28;20167;-73
2022/05/14 06:43:01;;;;;;;17.52;4.35;;;;;;;14.54;77.04;102275.94;5075274;28;20082;-73
2022/05/14 06:45:27;;;;;;;18.05;4.85;;;;;;;14.61;77.83;102274.47;5057540;28;20418;-72
2022/05/14 06:47:53;;;;;;;14.13;4.15;;;;;;;14.63;75.88;102276.06;5075014;28;20032;-75
2022/05/14 06:50:19;;;;;;;28.90;5.03;;;;;;;14.59;75.51;102274.59;5075005;28;20511;-72
2022/05/14 06:52:48;;;;;;;18.13;4.35;;;;;;;14.53;76.34;102277.78;5075762;28;20040;-72
2022/05/14 06:55:19;;;;;;;18.67;4.32;;;;;;;14.57;76.81;102278.38;5075565;28;20031;-72
2022/05/14 06:57:45;;;;;;;20.25;4.22;;;;;;;14.65;75.00;102275.09;5074890;28;20039;-72
2022/05/14 07:00:11;;;;;;;17.55;4.25;;;;;;;14.77;75.30;102279.38;5075046;28;20025;-73
2022/05/14 07:02:37;;;;;;;18.40;4.03;;;;;;;14.83;75.75;102289.56;5057524;28;20067;-73
2022/05/14 07:07:47;;;;;;;21.05;4.22;;;;;;;15.08;73.41;102292.84;5074998;28;20193;-72
2022/05/14 07:10:14;;;;;;;17.05;4.20;;;;;;;15.28;72.22;102291.91;5074622;28;20032;-72
2022/05/14 07:12:39;;;;;;;13.38;3.80;;;;;;;15.38;72.15;102286.59;5056451;28;20048;-72
2022/05/14 07:15:06;;;;;;;17.55;3.92;;;;;;;15.37;71.50;102300.16;5074607;28;20029;-74
2022/05/14 07:17:32;;;;;;;16.15;3.60;;;;;;;15.40;70.74;102297.19;5074497;28;20033;-70
2022/05/14 07:19:57;;;;;;;17.50;4.60;;;;;;;15.49;69.73;102309.78;5074465;28;20043;-73
2022/05/14 07:22:23;;;;;;;13.90;4.35;;;;;;;15.49;69.48;102293.69;5074230;28;20044;-69
2022/05/14 07:24:49;;;;;;;17.60;4.40;;;;;;;15.51;70.45;102295.25;5074287;28;20075;-70
2022/05/14 07:27:14;;;;;;;21.55;4.72;;;;;;;15.58;70.71;102308.13;5074351;28;20398;-69
2022/05/14 07:29:42;;;;;;;10.70;3.58;;;;;;;15.72;70.52;102302.38;5074361;28;20457;-71
2022/05/14 07:32:12;;;;;;;20.35;4.53;;;;;;;15.94;70.31;102301.31;5074013;28;20040;-70
2022/05/14 07:34:39;;;;;;;16.02;3.85;;;;;;;16.22;68.88;102299.66;5056285;28;20035;-72
2022/05/14 07:37:26;;;;;;;13.90;3.25;;;;;;;16.32;66.25;102298.81;5073907;28;20033;-72
2022/05/14 07:39:54;;;;;;;14.50;4.32;;;;;;;16.41;66.20;102300.66;5073974;28;20024;-72
2022/05/14 07:42:32;;;;;;;16.08;3.40;;;;;;;16.45;66.51;102306.56;5073885;28;20016;-73
2022/05/14 07:45:00;;;;;;;20.83;4.40;;;;;;;16.50;66.68;102310.53;5073605;28;20108;-72
2022/05/14 07:47:26;;;;;;;17.73;4.25;;;;;;;16.67;67.07;102305.44;5073383;28;20035;-74
2022/05/14 07:49:52;;;;;;;17.20;4.15;;;;;;;16.75;65.74;102298.34;5055871;28;20032;-74
2022/05/14 07:52:19;;;;;;;14.60;3.67;;;;;;;16.88;65.83;102306.16;5073293;28;20467;-72
2022/05/14 07:54:45;;;;;;;16.73;4.38;;;;;;;17.02;64.45;102307.50;5055880;28;20484;-70
2022/05/14 07:57:10;;;;;;;17.27;3.75;;;;;;;17.16;63.90;102316.94;5055784;28;20107;-70
2022/05/14 07:59:36;;;;;;;15.55;3.83;;;;;;;17.24;62.49;102319.75;5073579;28;20029;-71
2022/05/14 08:02:05;;;;;;;16.83;3.97;;;;;;;17.41;62.48;102318.13;5073483;28;20029;-73
2022/05/14 08:04:31;;;;;;;18.88;4.63;;;;;;;17.64;61.65;102315.03;5073416;28;20032;-70
2022/05/14 08:06:57;;;;;;;18.90;4.15;;;;;;;17.82;61.54;102323.16;5073474;28;20506;-70
2022/05/14 08:09:22;;;;;;;20.73;5.20;;;;;;;17.83;58.30;102324.84;5073640;28;20036;-71
2022/05/14 08:11:48;;;;;;;17.38;4.40;;;;;;;17.70;59.02;102318.97;5055969;28;20040;-71
2022/05/14 08:14:14;;;;;;;16.83;4.57;;;;;;;17.87;60.52;102318.19;5073623;28;20025;-73
2022/05/14 08:16:39;;;;;;;18.95;4.03;;;;;;;18.23;58.22;102315.53;5055731;28;20036;-74
2022/05/14 08:19:05;;;;;;;18.05;4.28;;;;;;;18.38;56.76;102309.63;5073743;28;20036;-73
2022/05/14 08:27:08;;;;;;;13.90;3.83;;;;;;;19.20;54.08;102311.06;5073463;28;20052;-74
2022/05/14 08:29:34;;;;;;;21.17;4.50;;;;;;;19.40;52.70;102312.69;5073833;28;20096;-80
2022/05/14 08:32:00;;;;;;;22.60;4.63;;;;;;;19.74;52.90;102313.47;5056606;28;20028;-82
2022/05/14 08:34:25;;;;;;;16.67;4.05;;;;;;;20.21;49.79;102308.53;5074141;28;20024;-79
2022/05/14 08:36:51;;;;;;;27.83;5.88;;;;;;;20.50;48.85;102310.75;5074119;28;20040;-81
2022/05/14 08:39:16;;;;;;;15.80;4.00;;;;;;;20.90;48.83;102305.50;5057607;28;20412;-80
2022/05/14 08:41:47;;;;;;;17.20;4.35;;;;;;;20.91;48.01;102305.31;5073991;28;20119;-85
2022/05/14 08:44:16;;;;;;;18.92;4.55;;;;;;;21.24;46.42;102304.38;5074584;28;20102;-79
2022/05/14 08:46:43;;;;;;;15.98;4.03;;;;;;;21.68;44.63;102306.59;5056643;28;20041;-81
2022/05/14 08:49:32;;;;;;;14.48;4.15;;;;;;;21.54;41.84;102305.50;5075695;28;20153;-81
2022/05/14 08:51:59;;;;;;;16.98;4.22;;;;;;;22.17;42.84;102305.47;5076449;28;20468;-79
2022/05/14 08:54:26;;;;;;;17.45;4.45;;;;;;;22.14;40.33;102308.53;5080483;28;20078;-82
2022/05/14 08:57:07;;;;;;;28.55;4.22;;;;;;;22.45;41.32;102308.50;5085910;28;20041;-85
2022/05/14 08:59:52;;;;;;;;;;;;;;;23.03;41.54;102307.91;5086452;28;20094;-87
2022/05/14 09:02:23;;;;;;;18.95;4.50;;;;;;;23.91;39.39;102299.91;5084830;28;19922;-87
2022/05/14 09:04:50;;;;;;;21.50;4.18;;;;;;;24.08;37.83;102304.06;5083127;28;20100;-87
2022/05/14 09:07:16;;;;;;;17.90;4.60;;;;;;;24.94;37.64;102308.53;5078320;28;20354;-86
2022/05/14 09:09:52;;;;;;;19.73;4.47;;;;;;;25.65;33.58;102307.47;5074878;28;20041;-80
2022/05/14 09:12:22;;;;;;;23.10;5.10;;;;;;;24.19;36.52;102302.69;5073970;28;20032;-78
2022/05/14 09:14:53;;;;;;;15.55;4.45;;;;;;;23.02;39.41;102306.22;5073995;28;20056;-86
2022/05/14 09:17:22;;;;;;;21.17;4.20;;;;;;;23.12;39.97;102306.00;5074663;28;20186;-86
2022/05/14 09:19:50;;;;;;;16.15;4.13;;;;;;;23.75;37.85;102303.66;5074017;28;20033;-86
2022/05/14 09:22:21;;;;;;;18.67;3.97;;;;;;;24.84;37.10;102305.31;5055678;28;20108;-83
2022/05/14 09:24:52;;;;;;;14.77;4.10;;;;;;;24.79;37.30;102305.09;5073819;28;20028;-85
2022/05/14 09:27:58;;;;;;;16.35;3.95;;;;;;;24.78;35.63;102314.28;5073438;28;20031;-78
2022/05/14 09:30:26;;;;;;;19.48;4.53;;;;;;;24.66;36.59;102305.81;5073595;28;20024;-78
2022/05/14 09:32:52;;;;;;;21.90;4.78;;;;;;;24.43;37.03;102298.72;5073093;28;20035;-84
2022/05/14 09:35:21;;;;;;;13.50;3.88;;;;;;;23.45;37.98;102300.16;5039561;28;20388;-84
2022/05/14 09:37:46;;;;;;;20.33;4.75;;;;;;;24.70;38.41;102309.84;5076515;28;20028;-86
2022/05/14 09:40:32;;;;;;;19.75;4.57;;;;;;;25.90;34.68;102312.38;5059122;28;20052;-83
2022/05/14 09:43:15;;;;;;;26.17;4.38;;;;;;;25.27;35.47;102305.16;5073842;28;20036;-85
2022/05/14 09:46:00;;;;;;;21.27;4.43;;;;;;;25.65;34.42;102302.00;5074787;28;20036;-77
2022/05/14 09:48:36;;;;;;;14.13;3.70;;;;;;;25.32;35.30;102310.06;5073350;28;20388;-81
2022/05/14 09:51:08;;;;;;;16.73;4.22;;;;;;;24.36;37.71;102313.28;5073437;28;20036;-81
2022/05/14 09:53:40;;;;;;;13.38;4.05;;;;;;;23.84;38.40;102307.97;5074371;28;20033;-81
2022/05/14 09:56:11;;;;;;;17.90;3.75;;;;;;;23.45;39.94;102301.00;5077416;28;20032;-83
2022/05/14 09:58:59;;;;;;;18.15;4.25;;;;;;;24.74;37.57;102307.59;5077041;28;20029;-78
2022/05/14 10:01:45;;;;;;;14.18;4.00;;;;;;;25.81;35.64;102305.41;5065884;28;20127;-84
2022/05/14 10:04:42;;;;;;;13.05;3.60;;;;;;;24.57;38.68;102316.00;5077149;28;20021;-80
2022/05/14 10:07:44;;;;;;;15.73;3.92;;;;;;;23.27;41.20;102309.53;5076531;28;20031;-79
2022/05/14 10:10:25;;;;;;;16.45;4.28;;;;;;;22.56;43.34;102307.22;5076353;28;20044;-80
2022/05/14 10:12:57;;;;;;;17.73;4.07;;;;;;;23.80;41.31;102312.09;5058865;28;20029;-81
2022/05/14 10:15:37;;;;;;;17.70;4.30;;;;;;;25.53;38.10;102311.81;5076230;28;20032;-84
2022/05/14 10:18:16;;;;;;;14.65;3.78;;;;;;;26.68;36.31;102306.38;5077180;28;20029;-82
2022/05/14 10:21:05;;;;;;;14.15;3.97;;;;;;;27.69;33.55;102309.66;5059709;28;20088;-89
2022/05/14 10:26:45;;;;;;;22.77;4.32;;;;;;;27.83;32.35;102306.84;5076159;28;20063;-78
2022/05/14 10:29:10;;;;;;;17.67;4.20;;;;;;;27.63;32.82;102313.25;5076194;28;20059;-80
2022/05/14 10:31:57;;;;;;;17.30;4.05;;;;;;;27.71;32.23;102314.94;5075823;28;20388;-78
2022/05/14 10:34:56;;;;;;;19.63;4.38;;;;;;;27.64;32.40;102316.84;5075837;28;20032;-80
2022/05/14 10:37:32;;;;;;;16.90;4.80;;;;;;;27.52;32.91;102308.50;5075751;28;20085;-75
2022/05/14 10:40:23;;;;;;;16.83;4.25;;;;;;;27.68;32.98;102318.94;5075322;28;20039;-75
2022/05/14 10:42:59;;;;;;;29.13;5.07;;;;;;;28.17;31.84;102312.97;5071442;28;20087;-76
2022/05/14 10:45:34;;;;;;;16.90;4.60;;;;;;;28.32;30.73;102318.97;5075673;28;20059;-79
2022/05/14 10:48:34;;;;;;;13.43;4.38;;;;;;;28.62;31.13;102327.38;5075731;28;20044;-80
2022/05/14 10:51:05;;;;;;;17.42;4.65;;;;;;;28.59;30.69;102324.19;5057991;28;20128;-78
2022/05/14 10:53:32;;;;;;;16.25;4.03;;;;;;;28.57;30.69;102315.38;5075778;28;20052;-82
2022/05/14 10:56:04;;;;;;;17.45;4.32;;;;;;;28.84;30.48;102326.94;5075886;28;20024;-80
2022/05/14 10:58:43;;;;;;;18.92;4.70;;;;;;;29.27;29.42;102325.28;5075600;28;20033;-80
2022/05/14 11:01:27;;;;;;;16.25;4.05;;;;;;;29.33;29.27;102332.56;5075491;28;20036;-79
2022/05/14 11:04:13;;;;;;;19.73;4.68;;;;;;;29.16;29.74;102327.66;5075254;28;20036;-80
2022/05/14 11:06:56;;;;;;;18.83;3.95;;;;;;;29.01;28.72;102324.47;5077255;28;20108;-81
2022/05/14 11:09:30;;;;;;;15.75;3.92;;;;;;;28.37;30.03;102323.78;5075329;28;20020;-80
2022/05/14 11:12:01;;;;;;;19.27;4.30;;;;;;;28.34;30.72;102326.97;5057173;28;20447;-78
2022/05/14 11:15:01;;;;;;;17.63;3.85;;;;;;;27.34;32.30;102339.25;5076212;28;20031;-81
2022/05/14 11:17:36;;;;;;;11.20;3.22;;;;;;;26.82;31.66;102333.66;5056388;28;20041;-80
2022/05/14 11:20:04;;;;;;;12.60;3.72;;;;;;;26.38;32.67;102335.97;5075324;28;20028;-78
2022/05/14 11:22:39;;;;;;;20.23;4.70;;;;;;;26.54;32.55;102331.97;5056942;28;20144;-81
2022/05/14 11:25:16;;;;;;;13.85;3.55;;;;;;;26.63;31.54;102327.13;5075356;28;20044;-85
2022/05/14 11:27:53;;;;;;;19.23;3.97;;;;;;;27.53;30.96;102332.03;5057481;28;20456;-82
2022/05/14 11:30:39;;;;;;;18.20;3.80;;;;;;;27.89;27.58;102336.06;5075696;28;20036;-84
2022/05/14 11:33:29;;;;;;;13.70;3.75;;;;;;;27.85;28.14;102337.56;5075651;28;20116;-80
2022/05/14 11:36:01;;;;;;;12.50;3.72;;;;;;;28.02;28.60;102336.03;5067021;28;20032;-73
2022/05/14 11:38:26;;;;;;;13.85;3.53;;;;;;;27.88;28.48;102339.84;5074040;28;20074;-73
2022/05/14 11:41:01;;;;;;;16.23;4.05;;;;;;;27.56;27.67;102329.72;5074318;28;20036;-73
2022/05/14 11:43:32;;;;;;;17.25;4.00;;;;;;;27.55;28.13;102329.94;5073783;28;20391;-73
2022/05/14 11:46:11;;;;;;;13.93;3.80;;;;;;;27.83;28.17;102337.78;5074191;28;20037;-73
2022/05/14 11:48:58;;;;;;;12.43;3.70;;;;;;;27.79;29.14;102334.63;5074100;28;20547;-73